Time;durP1;ratioP1;P1;durP2;ratioP2;P2;SDS_P1;SDS_P2;PMS_P1;PMS_P2;Temp;Humidity;BMP_temperature;BMP_pressure;BME280_temperature;BME280_humidity;BME280_pressure;Samples;Min_cycle;Max_cycle;Signal;HPM_P1;HPM_P2
2021/12/14 00:00:26;;;;;;;25.60;17.60;;;9.90;99.90;;;;;;5011726;28;20761;-49
2021/12/14 00:02:53;;;;;;;29.57;18.60;;;10.20;99.90;;;;;;5011800;28;20441;-50
2021/12/14 00:05:22;;;;;;;27.53;18.17;;;10.00;99.90;;;;;;5011545;28;20965;-49
2021/12/14 00:07:55;;;;;;;27.00;18.50;;;10.10;99.90;;;;;;5014728;28;20441;-50
2021/12/14 00:10:44;;;;;;;31.30;19.27;;;10.00;99.90;;;;;;5015178;28;20444;-49
2021/12/14 00:13:21;;;;;;;26.80;17.90;;;10.10;99.90;;;;;;5015152;28;20440;-51
2021/12/14 00:15:48;;;;;;;27.80;18.10;;;10.30;99.90;;;;;;5015208;28;20494;-50
2021/12/14 00:18:15;;;;;;;25.23;17.73;;;10.20;99.90;;;;;;5014491;28;20440;-49
2021/12/14 00:20:45;;;;;;;23.53;17.80;;;10.30;99.90;;;;;;5015302;28;20443;-49
2021/12/14 00:26:01;;;;;;;25.17;19.13;;;10.20;99.90;;;;;;5014858;28;20444;-49
2021/12/14 00:28:31;;;;;;;28.93;18.03;;;10.00;99.90;;;;;;5014414;28;20480;-50
2021/12/14 00:31:03;;;;;;;26.37;17.97;;;10.20;99.90;;;;;;5014893;28;20436;-50
2021/12/14 00:33:32;;;;;;;32.00;19.87;;;10.00;99.90;;;;;;5014688;28;20447;-50
2021/12/14 00:35:59;;;;;;;26.53;19.00;;;10.00;99.90;;;;;;5013414;28;21058;-49
2021/12/14 00:38:29;;;;;;;30.87;18.47;;;10.10;99.90;;;;;;5014573;28;20860;-49
2021/12/14 00:40:59;;;;;;;24.00;18.57;;;10.20;99.90;;;;;;5013456;28;20462;-50
2021/12/14 00:43:27;;;;;;;25.77;16.70;;;9.70;99.90;;;;;;5013433;28;20448;-49
2021/12/14 00:45:54;;;;;;;26.33;18.90;;;10.30;99.90;;;;;;5013088;28;20557;-50
2021/12/14 00:48:21;;;;;;;25.90;18.53;;;10.00;99.90;;;;;;5014195;28;20837;-49
2021/12/14 00:50:55;;;;;;;25.70;18.10;;;9.70;99.90;;;;;;5013223;28;20428;-49
2021/12/14 00:53:22;;;;;;;24.37;17.83;;;10.20;99.90;;;;;;5014594;28;20941;-50
2021/12/14 00:55:52;;;;;;;26.97;18.07;;;10.40;99.90;;;;;;5013184;28;20480;-49
2021/12/14 00:58:20;;;;;;;26.40;17.13;;;9.80;99.90;;;;;;5014034;28;20436;-49
2021/12/14 01:00:52;;;;;;;21.80;16.97;;;10.00;99.90;;;;;;5012688;28;20527;-48
2021/12/14 01:03:19;;;;;;;21.50;16.90;;;10.10;99.90;;;;;;5013016;28;20509;-50
2021/12/14 01:05:49;;;;;;;22.00;16.43;;;10.30;99.90;;;;;;5012735;28;20496;-49
2021/12/14 01:08:20;;;;;;;23.80;17.30;;;10.40;99.90;;;;;;5013761;28;20913;-49
2021/12/14 01:10:52;;;;;;;20.37;16.80;;;10.20;99.90;;;;;;5012707;28;20991;-50
2021/12/14 01:13:23;;;;;;;24.60;17.30;;;9.70;99.90;;;;;;5014012;28;20445;-50
2021/12/14 01:16:01;;;;;;;23.77;17.20;;;10.20;99.90;;;;;;5013884;28;20812;-49
2021/12/14 01:18:44;;;;;;;19.00;17.00;;;9.70;99.90;;;;;;5008936;28;20555;-49
2021/12/14 01:21:21;;;;;;;26.83;19.60;;;10.00;99.90;;;;;;4993149;28;20464;-50
2021/12/14 01:23:58;;;;;;;19.93;15.73;;;10.10;99.90;;;;;;4992924;28;20465;-49
2021/12/14 01:26:29;;;;;;;26.40;19.90;;;9.90;99.90;;;;;;4992967;28;20464;-50
2021/12/14 01:28:56;;;;;;;24.93;16.73;;;10.20;99.90;;;;;;4994085;28;20510;-49
2021/12/14 01:31:29;;;;;;;23.63;17.30;;;10.30;99.90;;;;;;4992948;28;20464;-50
2021/12/14 01:34:00;;;;;;;26.70;18.40;;;10.20;99.90;;;;;;4992814;28;20495;-49
2021/12/14 01:36:36;;;;;;;21.80;16.00;;;10.10;99.90;;;;;;4992936;28;20560;-50
2021/12/14 01:39:23;;;;;;;20.60;16.10;;;10.00;99.90;;;;;;4993741;28;20427;-50
2021/12/14 01:42:01;;;;;;;20.37;17.40;;;10.00;99.90;;;;;;4992809;28;20468;-49
2021/12/14 01:44:33;;;;;;;24.13;17.83;;;9.80;99.90;;;;;;4993786;28;20441;-51
2021/12/14 01:47:05;;;;;;;19.00;16.03;;;10.00;99.90;;;;;;4992803;28;21025;-50
2021/12/14 01:50:11;;;;;;;23.17;16.83;;;10.20;99.90;;;;;;4952878;29;20487;-49
2021/12/14 01:52:52;;;;;;;19.50;15.13;;;10.00;99.90;;;;;;4987799;28;20480;-49
2021/12/14 01:55:22;;;;;;;16.73;14.37;;;10.10;99.90;;;;;;4994149;28;20469;-52
2021/12/14 01:57:54;;;;;;;16.77;14.17;;;10.00;99.90;;;;;;4992150;28;20457;-52
2021/12/14 02:00:33;;;;;;;17.57;13.83;;;10.10;99.90;;;;;;4996662;28;20456;-52
2021/12/14 02:03:01;;;;;;;19.03;15.40;;;10.00;99.90;;;;;;5013433;28;20483;-51
2021/12/14 02:05:31;;;;;;;16.90;14.00;;;10.10;99.90;;;;;;5011643;28;20476;-51
2021/12/14 02:08:00;;;;;;;19.17;14.90;;;10.30;99.90;;;;;;5011464;28;20518;-51
2021/12/14 02:10:31;;;;;;;18.23;14.67;;;10.00;99.90;;;;;;5011580;28;20503;-51
2021/12/14 02:13:00;;;;;;;18.30;14.00;;;10.00;99.90;;;;;;5011623;28;20444;-53
2021/12/14 02:15:33;;;;;;;16.90;12.37;;;10.10;99.90;;;;;;5011519;28;20478;-52
2021/12/14 02:18:05;;;;;;;13.20;11.80;;;10.10;99.90;;;;;;5007838;28;20456;-52
2021/12/14 02:20:37;;;;;;;15.63;11.90;;;10.10;99.90;;;;;;4993230;28;20433;-51
2021/12/14 02:23:08;;;;;;;15.87;12.77;;;10.10;99.90;;;;;;4993236;28;20437;-51
2021/12/14 02:25:35;;;;;;;18.50;12.43;;;10.30;99.90;;;;;;4991842;28;20480;-52
2021/12/14 02:28:07;;;;;;;12.90;11.40;;;10.10;99.90;;;;;;4991415;28;20664;-53
2021/12/14 02:30:35;;;;;;;16.20;12.80;;;10.10;99.90;;;;;;4991585;28;20492;-53
2021/12/14 02:33:12;;;;;;;15.67;12.30;;;10.30;99.90;;;;;;4992991;28;20425;-52
2021/12/14 02:35:39;;;;;;;15.33;11.93;;;10.10;99.90;;;;;;4991904;28;20833;-52
2021/12/14 02:38:12;;;;;;;15.37;12.00;;;10.20;99.90;;;;;;4992614;28;20803;-50
2021/12/14 02:40:54;;;;;;;15.90;11.23;;;10.10;99.90;;;;;;4991630;28;20858;-52
2021/12/14 02:43:28;;;;;;;15.63;12.10;;;10.20;99.90;;;;;;4991830;28;21017;-52
2021/12/14 02:46:05;;;;;;;16.50;13.50;;;10.00;99.90;;;;;;4992801;28;20989;-52
2021/12/14 02:48:32;;;;;;;14.47;10.80;;;10.10;99.90;;;;;;4992512;28;20497;-53
2021/12/14 02:51:10;;;;;;;14.67;12.30;;;10.10;99.90;;;;;;4991604;28;20497;-52
2021/12/14 02:53:38;;;;;;;16.70;11.00;;;10.00;99.90;;;;;;4991396;28;20464;-52
2021/12/14 02:56:10;;;;;;;15.60;12.07;;;10.10;99.90;;;;;;4991303;28;20584;-52
2021/12/14 02:58:37;;;;;;;12.73;10.77;;;10.00;99.90;;;;;;4991043;28;20449;-52
2021/12/14 03:01:04;;;;;;;16.43;12.00;;;10.00;99.90;;;;;;5001212;28;20835;-53
2021/12/14 03:03:32;;;;;;;15.30;11.20;;;10.00;99.90;;;;;;5010848;28;20449;-53
2021/12/14 03:06:00;;;;;;;14.80;10.80;;;9.90;99.90;;;;;;5010697;28;20476;-52
2021/12/14 03:08:29;;;;;;;13.60;11.50;;;10.10;99.90;;;;;;5010491;28;20460;-53
2021/12/14 03:11:10;;;;;;;16.00;10.33;;;10.00;99.90;;;;;;5012230;28;20444;-53
2021/12/14 03:13:39;;;;;;;15.07;10.80;;;9.90;99.90;;;;;;5012208;28;20852;-53
2021/12/14 03:16:09;;;;;;;12.87;10.70;;;9.90;99.90;;;;;;5011789;28;20427;-53
2021/12/14 03:18:39;;;;;;;13.73;10.60;;;9.80;99.90;;;;;;5011761;28;20452;-53
2021/12/14 03:21:10;;;;;;;15.97;11.30;;;10.00;99.90;;;;;;5012363;28;20432;-53
2021/12/14 03:23:39;;;;;;;14.90;11.30;;;10.00;99.90;;;;;;5011267;28;20491;-53
2021/12/14 03:26:09;;;;;;;12.93;9.93;;;10.00;99.90;;;;;;5011211;28;20490;-54
2021/12/14 03:28:37;;;;;;;14.80;9.80;;;10.10;99.90;;;;;;5011716;28;20429;-53
2021/12/14 03:31:21;;;;;;;12.80;10.20;;;9.80;99.90;;;;;;5010726;28;20972;-54
2021/12/14 03:33:54;;;;;;;14.00;10.80;;;10.00;99.90;;;;;;5010907;28;20470;-53
2021/12/14 03:36:26;;;;;;;14.93;11.30;;;10.00;99.90;;;;;;5011747;28;20908;-53
2021/12/14 03:39:01;;;;;;;14.17;10.37;;;10.10;99.90;;;;;;5010244;28;20448;-53
2021/12/14 03:41:34;;;;;;;14.93;10.57;;;9.90;99.90;;;;;;5012408;28;21032;-53
2021/12/14 03:44:04;;;;;;;16.50;11.83;;;10.00;99.90;;;;;;5014941;28;20462;-57
2021/12/14 03:46:43;;;;;;;12.83;11.43;;;10.00;99.90;;;;;;5014669;28;20464;-55
2021/12/14 03:49:10;;;;;;;12.83;11.00;;;10.40;99.90;;;;;;5014103;28;20984;-57
2021/12/14 03:51:40;;;;;;;15.00;11.67;;;10.00;99.90;;;;;;5014574;28;20448;-54
2021/12/14 03:54:08;;;;;;;15.83;11.70;;;10.30;99.90;;;;;;5014555;28;20772;-53
2021/12/14 03:56:38;;;;;;;15.10;12.10;;;10.00;99.90;;;;;;5014205;28;20506;-54
2021/12/14 03:59:06;;;;;;;14.67;12.00;;;10.10;99.90;;;;;;5014061;28;20510;-54
2021/12/14 04:01:36;;;;;;;15.90;11.70;;;10.00;99.90;;;;;;5015464;28;20474;-53
2021/12/14 04:04:18;;;;;;;18.90;11.53;;;10.00;99.90;;;;;;5014164;28;20486;-55
2021/12/14 04:06:47;;;;;;;14.03;11.47;;;9.70;99.90;;;;;;5013956;28;20566;-53
2021/12/14 04:09:17;;;;;;;16.00;12.67;;;10.10;99.90;;;;;;5013611;28;20477;-52
2021/12/14 04:11:46;;;;;;;14.60;11.67;;;9.90;99.90;;;;;;5013961;28;20452;-52
2021/12/14 04:14:13;;;;;;;15.70;10.63;;;9.70;99.90;;;;;;5013911;28;20456;-52
2021/12/14 04:16:45;;;;;;;13.83;10.27;;;9.60;99.90;;;;;;5013599;28;20468;-52
2021/12/14 04:19:16;;;;;;;16.20;11.60;;;9.70;99.90;;;;;;5009998;28;20456;-54
2021/12/14 04:21:45;;;;;;;15.60;12.37;;;9.80;99.90;;;;;;5010573;28;20820;-53
2021/12/14 04:24:20;;;;;;;15.30;11.60;;;9.90;99.90;;;;;;4994225;28;20550;-52
2021/12/14 04:26:49;;;;;;;16.10;12.57;;;9.80;99.90;;;;;;5010582;28;21001;-54
2021/12/14 04:29:18;;;;;;;17.37;11.53;;;9.50;99.90;;;;;;5010126;28;20487;-52
2021/12/14 04:31:46;;;;;;;14.90;11.97;;;10.00;99.90;;;;;;5010826;28;20448;-52
2021/12/14 04:34:17;;;;;;;16.80;12.83;;;9.60;99.90;;;;;;5010615;28;20527;-53
2021/12/14 04:36:45;;;;;;;17.17;11.67;;;9.90;99.90;;;;;;4995375;28;20488;-53
2021/12/14 04:39:34;;;;;;;18.03;12.60;;;10.00;99.90;;;;;;5010083;28;20468;-52
2021/12/14 04:53:35;;;;;;;15.97;11.70;;;9.80;99.90;;;;;;4993373;28;20891;-52
2021/12/14 04:56:04;;;;;;;15.70;10.63;;;10.20;99.90;;;;;;5009685;28;20521;-54
2021/12/14 04:58:36;;;;;;;15.70;11.73;;;10.00;99.90;;;;;;5009673;28;20426;-53
2021/12/14 05:01:06;;;;;;;17.27;12.90;;;9.80;99.90;;;;;;5012917;28;20452;-52
2021/12/14 05:03:37;;;;;;;16.93;11.60;;;9.70;99.90;;;;;;5013031;28;20551;-52
2021/12/14 05:06:13;;;;;;;14.57;10.73;;;9.80;99.90;;;;;;5012962;28;20592;-51
2021/12/14 05:11:26;;;;;;;19.03;12.60;;;9.80;99.90;;;;;;5012698;28;20480;-52
2021/12/14 05:14:01;;;;;;;17.17;12.23;;;9.80;99.90;;;;;;5012884;28;20455;-53
2021/12/14 05:16:33;;;;;;;17.70;12.03;;;9.80;99.90;;;;;;5012671;28;20458;-53
2021/12/14 05:19:05;;;;;;;19.03;12.93;;;9.80;99.90;;;;;;5008707;28;20519;-53
2021/12/14 05:21:37;;;;;;;19.30;12.90;;;9.80;99.90;;;;;;4993043;28;20943;-55
2021/12/14 05:24:08;;;;;;;15.87;11.67;;;9.70;99.90;;;;;;4992942;28;20680;-53
2021/12/14 05:26:40;;;;;;;12.97;11.30;;;9.90;99.90;;;;;;4992665;28;20530;-52
2021/12/14 05:29:09;;;;;;;15.30;11.90;;;9.30;99.90;;;;;;4992622;28;20507;-53
2021/12/14 05:31:45;;;;;;;21.10;12.33;;;9.90;99.90;;;;;;4992667;28;20467;-53
2021/12/14 05:34:13;;;;;;;15.57;11.23;;;9.90;99.90;;;;;;4992860;28;20749;-54
2021/12/14 05:36:41;;;;;;;15.90;11.43;;;9.80;99.90;;;;;;4992568;28;20477;-52
2021/12/14 05:39:26;;;;;;;16.40;12.37;;;9.70;99.90;;;;;;4992366;28;20428;-51
2021/12/14 05:45:11;;;;;;;20.07;12.03;;;10.00;99.90;;;;;;4992563;28;20465;-52
2021/12/14 05:47:47;;;;;;;17.07;12.47;;;9.80;99.90;;;;;;4992141;28;20540;-52
2021/12/14 05:50:32;;;;;;;18.03;12.30;;;10.00;99.90;;;;;;4992977;28;20572;-52
2021/12/14 05:53:00;;;;;;;15.40;12.10;;;9.80;99.90;;;;;;4992461;28;20449;-53
2021/12/14 05:55:30;;;;;;;16.93;11.77;;;10.20;99.90;;;;;;4992236;28;20488;-52
2021/12/14 05:57:58;;;;;;;22.40;12.67;;;9.70;99.90;;;;;;4993097;28;20437;-53
2021/12/14 06:00:29;;;;;;;19.77;11.70;;;9.50;99.90;;;;;;4993640;28;20446;-53
2021/12/14 06:03:02;;;;;;;14.40;10.37;;;10.20;99.90;;;;;;5008164;28;20509;-52
2021/12/14 06:05:31;;;;;;;13.33;10.40;;;10.10;99.90;;;;;;5008180;28;20552;-54
2021/12/14 06:08:00;;;;;;;17.60;13.90;;;9.90;99.90;;;;;;4991750;28;20925;-54
2021/12/14 06:10:27;;;;;;;17.63;11.43;;;9.80;99.90;;;;;;5008260;28;20504;-51
2021/12/14 06:12:56;;;;;;;17.50;11.70;;;9.80;99.90;;;;;;5007970;28;20449;-48
2021/12/14 06:15:28;;;;;;;15.90;11.23;;;9.70;99.90;;;;;;4993562;28;20548;-50
2021/12/14 06:18:06;;;;;;;16.77;10.83;;;9.80;99.90;;;;;;5008219;28;20457;-53
2021/12/14 06:20:50;;;;;;;14.17;10.67;;;9.90;99.90;;;;;;5008571;28;20990;-49
2021/12/14 06:23:24;;;;;;;15.50;10.60;;;9.50;99.90;;;;;;5007956;28;20481;-52
2021/12/14 06:26:19;;;;;;;14.50;10.03;;;9.80;99.90;;;;;;4991471;28;20978;-54
2021/12/14 06:28:46;;;;;;;15.97;11.93;;;9.70;99.90;;;;;;5007289;28;20515;-52
2021/12/14 06:31:14;;;;;;;16.80;11.37;;;10.00;99.90;;;;;;5007754;28;20485;-52
2021/12/14 06:33:41;;;;;;;13.33;9.83;;;9.40;99.90;;;;;;5007726;28;20491;-53
2021/12/14 06:36:31;;;;;;;15.80;12.17;;;9.40;99.90;;;;;;5007131;28;20481;-52
2021/12/14 06:39:05;;;;;;;15.67;11.77;;;10.00;99.90;;;;;;4991366;28;20434;-53
2021/12/14 06:41:32;;;;;;;15.77;11.40;;;9.90;99.90;;;;;;5007506;28;20544;-53
2021/12/14 06:44:01;;;;;;;19.37;11.77;;;9.80;99.90;;;;;;5007269;28;20445;-53
2021/12/14 06:46:32;;;;;;;14.63;10.53;;;9.60;99.90;;;;;;4992182;28;20969;-54
2021/12/14 06:49:03;;;;;;;14.93;11.40;;;9.80;99.90;;;;;;5006376;28;20564;-54
2021/12/14 06:51:34;;;;;;;14.80;11.50;;;9.90;99.90;;;;;;5008169;28;20477;-52
2021/12/14 06:54:23;;;;;;;14.10;10.47;;;9.70;99.90;;;;;;4992658;28;20436;-54
2021/12/14 06:57:12;;;;;;;16.43;12.07;;;9.40;99.90;;;;;;5007776;28;20926;-53
2021/12/14 06:59:48;;;;;;;16.67;11.10;;;10.00;99.90;;;;;;5007294;28;20453;-53
2021/12/14 07:02:30;;;;;;;25.27;15.40;;;9.80;99.90;;;;;;4991021;28;20466;-52
2021/12/14 07:05:18;;;;;;;17.57;11.47;;;9.70;99.90;;;;;;4990605;28;21008;-53
2021/12/14 07:07:49;;;;;;;17.13;11.23;;;9.70;99.90;;;;;;4990857;28;20503;-56
2021/12/14 07:10:17;;;;;;;15.67;10.83;;;9.90;99.90;;;;;;4990583;28;20993;-56
2021/12/14 07:12:45;;;;;;;16.10;10.50;;;9.70;99.90;;;;;;4992705;28;20488;-57
2021/12/14 07:15:16;;;;;;;20.37;16.67;;;9.70;99.90;;;;;;4991100;28;20477;-52
2021/12/14 07:17:50;;;;;;;23.20;16.30;;;9.80;99.90;;;;;;4992370;28;20496;-51
2021/12/14 07:20:22;;;;;;;23.43;16.83;;;9.50;99.90;;;;;;4992279;28;20461;-53
2021/12/14 07:22:50;;;;;;;17.10;12.60;;;9.70;99.90;;;;;;4992199;28;20446;-51
2021/12/14 07:25:22;;;;;;;16.23;12.10;;;9.70;99.90;;;;;;4991932;28;20788;-53
2021/12/14 07:27:50;;;;;;;14.03;11.10;;;9.40;99.90;;;;;;4991327;28;20790;-53
2021/12/14 07:30:21;;;;;;;13.33;10.10;;;9.80;99.90;;;;;;5006260;28;20561;-51
2021/12/14 07:32:54;;;;;;;13.73;10.27;;;9.90;99.90;;;;;;4991935;28;20457;-53
2021/12/14 07:35:37;;;;;;;15.50;10.23;;;9.80;99.90;;;;;;4992198;28;20453;-53
2021/12/14 07:38:21;;;;;;;14.33;11.30;;;9.60;99.90;;;;;;4991760;28;20461;-53
2021/12/14 07:40:50;;;;;;;16.93;11.60;;;9.90;99.90;;;;;;4991938;28;20430;-52
2021/12/14 07:43:20;;;;;;;15.43;11.37;;;9.50;99.90;;;;;;4991887;28;20657;-53
2021/12/14 07:45:51;;;;;;;14.10;11.07;;;9.60;99.90;;;;;;5006626;28;20841;-53
2021/12/14 07:48:19;;;;;;;18.87;12.70;;;9.30;99.90;;;;;;4991065;28;20504;-52
2021/12/14 07:50:50;;;;;;;16.80;11.80;;;9.60;99.90;;;;;;4991853;28;20459;-52
2021/12/14 07:53:31;;;;;;;12.83;11.03;;;9.90;99.90;;;;;;4992092;28;20456;-53
2021/12/14 07:55:57;;;;;;;16.43;10.40;;;9.80;99.90;;;;;;4992056;28;20465;-52
2021/12/14 07:58:31;;;;;;;16.47;10.60;;;9.70;99.90;;;;;;4991355;28;20419;-50
2021/12/14 08:00:59;;;;;;;17.63;10.93;;;9.70;99.90;;;;;;5000946;28;20459;-51
2021/12/14 08:03:33;;;;;;;13.20;10.83;;;9.70;99.90;;;;;;5011083;28;20438;-48
2021/12/14 08:06:01;;;;;;;14.47;10.73;;;9.50;99.90;;;;;;5009854;28;20578;-50
2021/12/14 08:08:40;;;;;;;13.87;10.40;;;9.70;99.90;;;;;;5011350;28;20432;-50
2021/12/14 08:13:53;;;;;;;16.53;11.00;;;9.70;99.90;;;;;;5010579;28;20960;-50
2021/12/14 08:16:20;;;;;;;18.60;12.10;;;10.20;99.90;;;;;;5010999;28;20471;-50
2021/12/14 08:18:50;;;;;;;16.63;11.80;;;9.90;99.90;;;;;;5010344;28;20456;-49
2021/12/14 08:21:19;;;;;;;15.53;11.90;;;9.80;99.90;;;;;;5011250;28;20451;-50
2021/12/14 08:23:52;;;;;;;14.20;12.20;;;9.80;99.90;;;;;;5011160;28;20429;-51
2021/12/14 08:26:23;;;;;;;15.30;11.60;;;9.90;99.90;;;;;;5011089;28;20463;-51
2021/12/14 08:28:52;;;;;;;15.10;11.00;;;10.10;99.90;;;;;;5014376;28;20428;-50
2021/12/14 08:31:20;;;;;;;17.47;12.63;;;9.80;99.90;;;;;;5014087;28;20506;-51
2021/12/14 08:33:56;;;;;;;16.37;12.97;;;9.60;99.90;;;;;;5014571;28;20550;-51
2021/12/14 08:36:22;;;;;;;21.30;14.20;;;10.00;99.90;;;;;;5014396;28;20881;-51
2021/12/14 08:39:01;;;;;;;15.20;12.47;;;9.80;99.90;;;;;;5014035;28;20850;-49
2021/12/14 08:41:28;;;;;;;13.87;11.60;;;9.70;99.90;;;;;;5014040;28;20403;-49
2021/12/14 08:43:56;;;;;;;13.67;11.30;;;9.80;99.90;;;;;;5014154;28;20415;-50
2021/12/14 08:46:27;;;;;;;17.73;12.87;;;9.50;99.90;;;;;;5013040;28;20478;-50
2021/12/14 08:48:57;;;;;;;19.20;12.73;;;9.80;99.90;;;;;;5014050;28;20436;-49
2021/12/14 08:51:29;;;;;;;14.83;11.27;;;9.90;99.90;;;;;;5012425;28;20476;-49
2021/12/14 08:54:00;;;;;;;13.43;11.17;;;9.90;99.90;;;;;;5013457;28;20415;-50
2021/12/14 08:56:29;;;;;;;17.97;12.30;;;9.70;99.90;;;;;;5014184;28;20449;-50
2021/12/14 08:58:56;;;;;;;13.87;11.57;;;9.60;99.90;;;;;;5012040;28;20460;-50
2021/12/14 09:01:27;;;;;;;13.67;11.20;;;9.70;99.90;;;;;;5011930;28;20448;-50
2021/12/14 09:03:58;;;;;;;15.70;11.73;;;10.10;99.90;;;;;;5014073;28;20436;-50
2021/12/14 09:06:30;;;;;;;20.27;12.60;;;9.90;99.90;;;;;;5014281;28;21002;-50
2021/12/14 09:09:00;;;;;;;19.20;11.63;;;9.90;99.90;;;;;;4994185;28;20437;-50
2021/12/14 09:11:31;;;;;;;17.50;11.77;;;9.90;99.90;;;;;;4994946;28;20487;-49
2021/12/14 09:13:59;;;;;;;18.17;12.30;;;9.40;99.90;;;;;;4994504;28;20445;-49
2021/12/14 09:16:29;;;;;;;20.40;12.17;;;9.80;99.90;;;;;;5005575;28;20464;-51
2021/12/14 09:19:02;;;;;;;19.27;12.23;;;9.90;99.90;;;;;;5013917;28;20463;-49
2021/12/14 09:21:34;;;;;;;20.73;12.50;;;10.10;99.90;;;;;;5013673;28;20448;-50
2021/12/14 09:24:06;;;;;;;17.77;12.27;;;9.50;99.90;;;;;;5014138;28;21071;-50
2021/12/14 09:26:35;;;;;;;17.73;12.63;;;10.00;99.90;;;;;;5013969;28;20461;-50
2021/12/14 09:29:05;;;;;;;15.63;11.80;;;10.10;99.90;;;;;;5012828;28;20770;-50
2021/12/14 09:31:36;;;;;;;18.33;12.60;;;9.80;99.90;;;;;;5012863;28;20476;-52
2021/12/14 09:34:06;;;;;;;20.20;12.30;;;10.00;99.90;;;;;;5013396;28;20436;-53
2021/12/14 09:36:33;;;;;;;19.67;13.30;;;10.00;99.90;;;;;;5013599;28;20551;-53
2021/12/14 09:39:07;;;;;;;20.40;13.77;;;9.90;99.90;;;;;;5012254;28;20433;-52
2021/12/14 09:41:34;;;;;;;20.43;12.93;;;9.60;99.90;;;;;;5013803;28;20487;-53
2021/12/14 09:44:02;;;;;;;17.73;12.40;;;10.00;99.90;;;;;;5013663;28;20925;-53
2021/12/14 09:46:29;;;;;;;19.60;12.83;;;10.10;99.90;;;;;;5012965;28;20455;-53
2021/12/14 09:49:00;;;;;;;17.50;13.13;;;10.00;99.90;;;;;;5012659;28;20428;-52
2021/12/14 09:51:32;;;;;;;18.17;14.70;;;10.10;99.90;;;;;;5012868;28;20823;-53
2021/12/14 09:54:01;;;;;;;18.30;12.67;;;9.70;99.90;;;;;;5013375;28;20752;-52
2021/12/14 09:56:31;;;;;;;23.70;12.10;;;10.20;99.90;;;;;;5013300;28;21000;-55
2021/12/14 09:59:03;;;;;;;19.80;11.77;;;10.10;99.90;;;;;;5012772;28;20450;-52
2021/12/14 10:01:34;;;;;;;22.53;12.50;;;10.00;99.90;;;;;;5013706;28;20789;-53
2021/12/14 10:04:04;;;;;;;26.33;14.40;;;9.70;99.90;;;;;;5012978;28;20788;-52
2021/12/14 10:06:34;;;;;;;16.80;11.47;;;10.10;99.90;;;;;;5012581;28;20456;-51
2021/12/14 10:09:05;;;;;;;15.20;12.07;;;10.00;99.90;;;;;;5012042;28;20448;-51
2021/12/14 10:11:43;;;;;;;17.63;13.10;;;9.80;99.90;;;;;;5012614;28;20558;-51
2021/12/14 10:14:11;;;;;;;24.00;11.70;;;9.90;99.90;;;;;;5013173;28;20494;-51
2021/12/14 10:16:38;;;;;;;22.20;13.27;;;10.10;99.90;;;;;;5012532;28;20795;-51
2021/12/14 10:19:12;;;;;;;26.97;12.30;;;10.20;99.90;;;;;;4995921;28;20910;-51
2021/12/14 10:21:43;;;;;;;19.33;12.97;;;10.10;99.90;;;;;;4992969;28;20504;-51
2021/12/14 10:24:10;;;;;;;16.37;12.07;;;10.10;99.90;;;;;;4993079;28;20518;-52
2021/12/14 10:26:41;;;;;;;17.33;13.00;;;10.20;99.90;;;;;;4992630;28;20467;-50
2021/12/14 10:29:08;;;;;;;20.50;12.97;;;10.20;99.90;;;;;;4992967;28;20891;-50
2021/12/14 10:31:39;;;;;;;23.50;14.60;;;10.10;99.90;;;;;;4992571;28;20479;-51
2021/12/14 10:34:10;;;;;;;18.73;13.50;;;10.20;99.90;;;;;;5008388;28;20503;-51
2021/12/14 10:36:42;;;;;;;19.17;12.53;;;10.30;99.90;;;;;;5012585;28;20469;-53
2021/12/14 10:39:22;;;;;;;19.57;14.03;;;10.20;99.90;;;;;;5010267;28;20555;-52
2021/12/14 10:44:42;;;;;;;20.03;13.57;;;10.10;99.90;;;;;;5012193;28;20944;-51
2021/12/14 10:47:12;;;;;;;20.87;14.60;;;9.80;99.90;;;;;;5012207;28;20466;-52
2021/12/14 10:49:39;;;;;;;24.00;14.40;;;10.30;99.90;;;;;;5011284;28;20432;-51
2021/12/14 10:52:14;;;;;;;20.57;13.57;;;10.40;99.90;;;;;;5010950;28;20484;-51
2021/12/14 10:54:46;;;;;;;18.83;12.67;;;10.40;99.90;;;;;;5010958;28;20435;-49
2021/12/14 10:57:17;;;;;;;19.53;13.30;;;10.50;99.90;;;;;;5010336;28;20436;-50
2021/12/14 10:59:48;;;;;;;19.83;14.30;;;10.30;99.90;;;;;;5010027;28;20539;-50
2021/12/14 11:02:19;;;;;;;19.90;14.40;;;10.60;99.90;;;;;;4991462;28;20449;-51
2021/12/14 11:04:54;;;;;;;21.97;14.17;;;10.80;99.90;;;;;;4991505;28;20931;-52
2021/12/14 11:07:25;;;;;;;16.80;13.00;;;10.60;99.90;;;;;;4991970;28;20962;-51
2021/12/14 11:09:55;;;;;;;19.97;13.80;;;10.70;99.90;;;;;;4991956;28;20935;-50
2021/12/14 11:12:26;;;;;;;20.47;13.83;;;10.90;99.90;;;;;;4991861;28;20509;-51
2021/12/14 11:14:58;;;;;;;21.60;14.30;;;10.60;99.90;;;;;;4991760;28;20449;-51
2021/12/14 11:20:15;;;;;;;24.43;14.13;;;10.70;99.90;;;;;;5009850;28;20448;-50
2021/12/14 11:22:47;;;;;;;21.23;14.20;;;10.40;99.90;;;;;;5011740;28;20491;-51
2021/12/14 11:25:20;;;;;;;24.03;15.00;;;10.90;99.90;;;;;;5010486;28;20482;-51
2021/12/14 11:27:49;;;;;;;22.33;15.00;;;10.70;99.90;;;;;;5008902;28;20452;-49
2021/12/14 11:30:21;;;;;;;19.20;14.13;;;10.80;99.90;;;;;;5009813;28;20903;-51
2021/12/14 11:33:01;;;;;;;21.13;13.60;;;11.10;99.90;;;;;;5009408;28;20484;-50
2021/12/14 11:35:30;;;;;;;24.43;13.60;;;10.80;99.90;;;;;;5009358;28;20484;-51
2021/12/14 11:37:59;;;;;;;18.30;13.47;;;11.20;99.90;;;;;;5008978;28;20444;-51
2021/12/14 11:40:29;;;;;;;21.07;14.60;;;11.40;99.90;;;;;;5008606;28;20492;-51
2021/12/14 11:43:10;;;;;;;19.57;12.87;;;10.90;99.90;;;;;;5011802;28;20429;-52
2021/12/14 11:45:37;;;;;;;19.03;13.90;;;10.80;99.90;;;;;;5011420;28;20829;-51
2021/12/14 11:48:04;;;;;;;25.70;13.60;;;10.90;99.90;;;;;;5010986;28;20791;-51
2021/12/14 11:50:40;;;;;;;14.93;11.80;;;11.00;99.90;;;;;;5011670;28;20413;-51
2021/12/14 11:53:14;;;;;;;18.40;11.83;;;11.30;99.90;;;;;;5011075;28;20477;-51
2021/12/14 11:55:46;;;;;;;18.23;13.03;;;11.00;99.90;;;;;;5011320;28;20476;-52
2021/12/14 11:58:30;;;;;;;17.20;11.90;;;11.10;99.90;;;;;;5010143;28;20463;-50
2021/12/14 12:01:05;;;;;;;21.63;13.63;;;11.00;99.90;;;;;;5000068;28;20449;-52
2021/12/14 12:03:49;;;;;;;19.53;13.83;;;11.10;99.90;;;;;;5014783;28;20414;-50
2021/12/14 12:06:45;;;;;;;15.93;11.57;;;11.10;99.90;;;;;;5014917;28;20553;-50
2021/12/14 12:09:30;;;;;;;19.07;13.70;;;10.80;99.90;;;;;;5014892;28;20529;-51
2021/12/14 12:12:06;;;;;;;18.93;14.33;;;11.40;99.90;;;;;;5014952;28;20489;-51
2021/12/14 12:14:36;;;;;;;19.00;13.40;;;11.20;99.90;;;;;;5015494;28;20436;-52
2021/12/14 12:17:12;;;;;;;17.13;12.63;;;11.20;99.90;;;;;;5014879;28;20437;-52
2021/12/14 12:19:40;;;;;;;17.93;11.70;;;11.20;99.90;;;;;;4994390;28;20457;-52
2021/12/14 12:22:11;;;;;;;20.87;12.60;;;11.50;99.90;;;;;;4994650;28;20955;-51
2021/12/14 12:24:42;;;;;;;16.37;11.30;;;11.20;99.90;;;;;;4994735;28;20929;-52
2021/12/14 12:27:19;;;;;;;18.90;12.30;;;11.30;99.90;;;;;;4995170;28;20450;-51
2021/12/14 12:29:46;;;;;;;17.23;11.07;;;11.30;99.90;;;;;;4994766;28;20457;-50
2021/12/14 12:32:21;;;;;;;21.40;12.20;;;11.30;99.90;;;;;;4993507;28;20528;-51
2021/12/14 12:34:50;;;;;;;17.03;11.63;;;11.30;99.90;;;;;;4993938;28;20483;-51
2021/12/14 12:37:33;;;;;;;21.70;11.60;;;11.30;99.90;;;;;;4995569;28;20508;-50
2021/12/14 12:40:00;;;;;;;15.53;10.37;;;11.40;99.90;;;;;;4995081;28;20930;-51
2021/12/14 12:42:28;;;;;;;12.87;11.57;;;10.90;99.90;;;;;;4994256;28;20442;-52
2021/12/14 12:44:55;;;;;;;17.23;11.63;;;11.20;99.90;;;;;;4995041;28;20460;-50
2021/12/14 12:47:23;;;;;;;33.73;24.00;;;11.20;99.90;;;;;;4994804;28;20450;-52
2021/12/14 12:49:52;;;;;;;21.77;16.00;;;11.10;99.90;;;;;;4994749;28;20449;-51
2021/12/14 12:52:19;;;;;;;21.00;13.43;;;11.20;99.90;;;;;;4994349;28;20478;-51
2021/12/14 12:54:58;;;;;;;21.40;12.00;;;11.20;99.90;;;;;;4994500;28;20907;-52
2021/12/14 12:57:45;;;;;;;17.33;12.20;;;11.20;99.90;;;;;;4994426;28;20457;-50
2021/12/14 13:00:25;;;;;;;16.50;11.80;;;11.40;99.90;;;;;;5009893;28;20488;-52
2021/12/14 13:02:55;;;;;;;15.63;11.00;;;11.20;99.90;;;;;;5014569;28;20442;-51
2021/12/14 13:05:29;;;;;;;14.13;12.03;;;11.00;99.90;;;;;;5013938;28;20464;-51
2021/12/14 13:07:59;;;;;;;19.03;11.03;;;11.20;99.90;;;;;;5013533;28;20518;-51
2021/12/14 13:10:31;;;;;;;13.83;10.73;;;11.20;99.90;;;;;;5013959;28;20795;-52
2021/12/14 13:13:07;;;;;;;13.70;11.17;;;11.20;99.90;;;;;;5012885;28;20492;-51
2021/12/14 13:16:07;;;;;;;16.30;11.83;;;11.10;99.90;;;;;;5013165;28;20475;-50
2021/12/14 13:18:41;;;;;;;21.47;11.50;;;11.00;99.90;;;;;;5012739;28;20450;-52
2021/12/14 13:21:23;;;;;;;14.13;10.67;;;11.10;99.90;;;;;;5012123;28;20442;-51
2021/12/14 13:23:58;;;;;;;15.33;11.17;;;11.10;99.90;;;;;;5013314;28;20791;-51